createdAt,value
2018-07-19T00:02:12.425Z,54.86
2018-07-19T00:04:41.526Z,54.80
2018-07-19T00:07:10.205Z,54.99
2018-07-19T00:09:39.197Z,55.00
2018-07-19T00:12:08.152Z,55.27
2018-07-19T00:14:37.181Z,55.48
2018-07-19T00:17:06.076Z,55.61
2018-07-19T00:19:34.534Z,55.64
2018-07-19T00:22:04.143Z,56.47
2018-07-19T00:24:32.638Z,56.36
2018-07-19T00:27:01.849Z,56.15
2018-07-19T00:29:30.554Z,57.06
2018-07-19T00:31:59.501Z,57.21
2018-07-19T00:34:27.998Z,57.31
2018-07-19T00:36:56.599Z,57.48
2018-07-19T00:39:25.318Z,57.30
2018-07-19T00:41:54.096Z,57.40
2018-07-19T00:44:22.933Z,57.89
2018-07-19T00:46:52.297Z,58.03
2018-07-19T00:49:21.577Z,58.56
2018-07-19T00:51:50.066Z,58.81
2018-07-19T00:54:18.661Z,58.62
2018-07-19T00:56:47.110Z,58.24
2018-07-19T00:59:15.976Z,57.95
2018-07-19T01:01:45.262Z,57.74
2018-07-19T01:04:14.288Z,57.40
2018-07-19T01:06:42.768Z,57.00
2018-07-19T01:09:12.214Z,56.58
2018-07-19T01:11:40.966Z,56.59
2018-07-19T01:14:09.969Z,56.68
2018-07-19T01:16:38.492Z,56.79
2018-07-19T01:19:07.361Z,56.80
2018-07-19T01:21:36.285Z,56.74
2018-07-19T01:24:05.194Z,56.59
2018-07-19T01:26:33.712Z,56.74
2018-07-19T01:29:02.681Z,56.59
2018-07-19T01:31:31.521Z,56.63
2018-07-19T01:34:00.342Z,56.73
2018-07-19T01:36:29.012Z,56.76
2018-07-19T01:38:57.925Z,56.66
2018-07-19T01:41:36.993Z,56.48
2018-07-19T01:44:06.571Z,56.50
2018-07-19T01:46:35.172Z,56.47
2018-07-19T01:49:03.829Z,56.46
2018-07-19T01:51:32.505Z,56.75
2018-07-19T01:54:01.333Z,56.23
2018-07-19T01:56:29.800Z,56.68
2018-07-19T01:58:59.062Z,56.69
2018-07-19T02:01:28.453Z,56.36
2018-07-19T02:03:56.937Z,56.60
2018-07-19T02:06:25.737Z,56.95
2018-07-19T02:08:54.674Z,56.63
2018-07-19T02:11:23.533Z,56.96
2018-07-19T02:13:52.733Z,56.88
2018-07-19T02:16:21.489Z,57.53
2018-07-19T02:18:50.388Z,57.24
2018-07-19T02:21:19.068Z,57.37
2018-07-19T02:23:47.553Z,57.34
2018-07-19T02:26:16.543Z,57.41
2018-07-19T02:28:45.445Z,57.48
2018-07-19T02:31:13.901Z,57.60
2018-07-19T02:33:42.614Z,57.69
2018-07-19T02:36:11.489Z,57.75
2018-07-19T02:38:40.352Z,57.94
2018-07-19T02:41:09.204Z,57.92
2018-07-19T02:43:38.261Z,58.15
2018-07-19T02:46:07.397Z,58.25
2018-07-19T02:48:36.001Z,58.26
2018-07-19T02:51:04.933Z,58.27
2018-07-19T02:53:33.628Z,58.45
2018-07-19T02:56:02.193Z,58.06
2018-07-19T02:58:30.685Z,58.36
2018-07-19T03:00:59.337Z,58.48
2018-07-19T03:03:27.825Z,58.49
2018-07-19T03:05:56.525Z,58.01
2018-07-19T03:08:25.190Z,58.33
2018-07-19T03:10:53.735Z,58.27
2018-07-19T03:13:23.147Z,58.94
2018-07-19T03:15:53.037Z,58.67
2018-07-19T03:18:21.701Z,58.37
2018-07-19T03:20:51.186Z,58.33
2018-07-19T03:23:19.963Z,58.23
2018-07-19T03:25:48.485Z,58.49
2018-07-19T03:28:17.338Z,58.32
2018-07-19T03:30:46.094Z,58.37
2018-07-19T03:33:14.741Z,58.43
2018-07-19T03:35:43.933Z,58.43
2018-07-19T03:38:12.388Z,58.57
2018-07-19T03:40:41.068Z,58.37
2018-07-19T03:43:09.801Z,58.77
2018-07-19T03:45:38.285Z,58.53
2018-07-19T03:48:07.162Z,58.43
2018-07-19T03:50:36.499Z,57.86
2018-07-19T03:53:05.161Z,57.73
2018-07-19T03:55:33.638Z,57.99
2018-07-19T03:58:02.419Z,57.57
2018-07-19T04:00:30.897Z,56.92
2018-07-19T04:02:59.603Z,55.93
2018-07-19T04:05:28.461Z,56.01
2018-07-19T04:07:57.570Z,55.83
2018-07-19T04:10:26.258Z,55.06
2018-07-19T04:12:55.983Z,55.38
2018-07-19T04:15:24.548Z,55.08
2018-07-19T04:17:56.274Z,54.87
2018-07-19T04:20:26.380Z,54.80
2018-07-19T04:22:58.663Z,54.72
2018-07-19T04:25:28.038Z,54.32
2018-07-19T04:27:57.757Z,53.87
2018-07-19T04:30:26.220Z,53.80
2018-07-19T04:32:55.069Z,53.83
2018-07-19T04:35:23.533Z,54.23
2018-07-19T04:37:52.126Z,54.36
2018-07-19T04:40:21.741Z,54.01
2018-07-19T04:42:50.227Z,54.03
2018-07-19T04:45:18.704Z,54.14
2018-07-19T04:47:47.790Z,54.74
2018-07-19T04:50:16.403Z,54.45
2018-07-19T04:52:44.977Z,54.83
2018-07-19T04:55:14.458Z,54.84
2018-07-19T04:57:43.256Z,54.31
2018-07-19T05:00:11.946Z,54.81
2018-07-19T05:02:40.918Z,54.22
2018-07-19T05:05:09.953Z,54.07
2018-07-19T05:07:38.442Z,54.18
2018-07-19T05:10:07.481Z,54.46
2018-07-19T05:12:36.106Z,54.28
2018-07-19T05:15:04.617Z,54.06
2018-07-19T05:17:33.681Z,54.32
2018-07-19T05:20:02.357Z,53.90
2018-07-19T05:22:30.822Z,53.97
2018-07-19T05:24:59.613Z,54.27
2018-07-19T05:27:28.400Z,53.81
2018-07-19T05:29:57.102Z,53.78
2018-07-19T05:32:26.271Z,53.86
2018-07-19T05:34:54.725Z,53.67
2018-07-19T05:37:23.573Z,54.39
2018-07-19T05:39:52.669Z,53.86
2018-07-19T05:42:22.261Z,53.93
2018-07-19T05:44:50.853Z,54.36
2018-07-19T05:47:19.641Z,53.86
2018-07-19T05:49:48.130Z,53.45
2018-07-19T05:52:17.261Z,53.27
2018-07-19T05:54:46.000Z,53.53
2018-07-19T05:57:14.493Z,53.50
2018-07-19T05:59:43.175Z,52.77
2018-07-19T06:02:12.039Z,53.19
2018-07-19T06:04:40.518Z,53.16
2018-07-19T06:07:08.977Z,52.41
2018-07-19T06:09:37.909Z,52.62
2018-07-19T06:12:06.363Z,52.53
2018-07-19T06:14:34.837Z,52.04
2018-07-19T06:17:03.846Z,51.57
2018-07-19T06:19:32.657Z,51.95
2018-07-19T06:22:01.437Z,51.41
2018-07-19T06:24:30.206Z,51.78
2018-07-19T06:26:58.706Z,51.35
2018-07-19T06:29:27.178Z,51.11
2018-07-19T06:31:55.958Z,51.22
2018-07-19T06:34:24.437Z,50.53
2018-07-19T06:36:53.120Z,50.46
2018-07-19T06:39:22.138Z,50.01
2018-07-19T06:41:50.610Z,49.66
2018-07-19T06:44:19.248Z,49.60
2018-07-19T06:46:48.085Z,48.96
2018-07-19T06:49:16.620Z,48.71
2018-07-19T06:51:45.258Z,49.45
2018-07-19T06:54:14.671Z,49.25
2018-07-19T06:56:43.246Z,49.01
2018-07-19T06:59:11.973Z,48.71
2018-07-19T07:01:40.786Z,47.89
2018-07-19T07:04:09.297Z,48.20
2018-07-19T07:06:37.999Z,48.02
2018-07-19T07:09:08.984Z,47.41
2018-07-19T07:11:37.458Z,47.74
2018-07-19T07:14:06.202Z,46.74
2018-07-19T07:16:35.153Z,47.39
2018-07-19T07:19:03.882Z,47.02
2018-07-19T07:21:32.565Z,46.45
2018-07-19T07:24:01.814Z,46.20
2018-07-19T07:26:30.271Z,45.43
2018-07-19T07:28:58.741Z,44.80
2018-07-19T07:31:27.774Z,44.92
2018-07-19T07:33:56.269Z,45.12
2018-07-19T07:36:24.881Z,44.74
2018-07-19T07:38:54.171Z,44.09
2018-07-19T07:41:22.955Z,44.80
2018-07-19T07:43:51.418Z,43.01
2018-07-19T07:46:20.507Z,41.61
2018-07-19T07:48:49.618Z,39.36
2018-07-19T07:51:18.101Z,38.54
2018-07-19T07:53:46.897Z,37.30
2018-07-19T07:56:16.061Z,36.40
2018-07-19T07:58:44.525Z,35.71
2018-07-19T08:01:13.542Z,35.46
2018-07-19T08:03:42.325Z,34.63
2018-07-19T08:06:11.086Z,34.07
2018-07-19T08:08:39.950Z,33.21
2018-07-19T08:11:08.733Z,32.74
2018-07-19T08:13:37.385Z,31.18
2018-07-19T08:16:06.285Z,31.51
2018-07-19T08:18:34.762Z,30.69
2018-07-19T08:21:03.440Z,30.41
2018-07-19T08:23:32.346Z,30.06
2018-07-19T08:26:00.843Z,30.22
2018-07-19T08:28:30.121Z,29.81
2018-07-19T08:30:58.685Z,30.07
2018-07-19T08:33:27.165Z,30.54
2018-07-19T08:35:55.999Z,29.82
2018-07-19T08:38:24.762Z,29.63
2018-07-19T08:40:53.548Z,29.00
2018-07-19T08:43:22.521Z,29.03
2018-07-19T08:45:51.445Z,28.60
2018-07-19T08:48:20.975Z,28.44
2018-07-19T08:50:49.477Z,27.07
2018-07-19T08:53:19.117Z,26.82
2018-07-19T08:55:47.605Z,26.52
2018-07-19T08:58:16.618Z,26.55
2018-07-19T09:00:45.779Z,26.94
2018-07-19T09:03:14.482Z,27.41
2018-07-19T09:05:42.983Z,27.01
2018-07-19T09:08:11.738Z,27.74
2018-07-19T09:10:40.585Z,26.02
2018-07-19T09:13:09.063Z,25.03
2018-07-19T09:15:37.877Z,25.55
2018-07-19T09:18:06.809Z,25.77
2018-07-19T09:20:35.711Z,25.86
2018-07-19T09:23:04.481Z,24.73
2018-07-19T09:25:32.929Z,24.56
2018-07-19T09:28:01.930Z,24.83
2018-07-19T09:30:30.533Z,24.09
2018-07-19T09:32:59.041Z,24.04
2018-07-19T09:35:27.729Z,23.82
2018-07-19T09:37:57.207Z,23.80
2018-07-19T09:40:25.673Z,23.80
2018-07-19T09:42:54.434Z,23.30
2018-07-19T09:45:23.545Z,22.71
2018-07-19T09:47:52.153Z,23.09
2018-07-19T09:50:21.701Z,23.45
2018-07-19T09:52:50.530Z,22.70
2018-07-19T09:55:19.445Z,22.12
2018-07-19T09:57:47.918Z,22.31
2018-07-19T10:00:22.042Z,22.33
2018-07-19T10:02:50.965Z,22.58
2018-07-19T10:05:19.761Z,22.14
2018-07-19T10:07:48.349Z,23.32
2018-07-19T10:10:17.439Z,23.59
2018-07-19T10:12:45.937Z,23.35
2018-07-19T10:15:15.585Z,22.48
2018-07-19T10:17:44.253Z,22.50
2018-07-19T10:20:13.502Z,22.78
2018-07-19T10:22:41.998Z,22.46
2018-07-19T10:25:10.961Z,21.85
2018-07-19T10:27:39.945Z,22.27
2018-07-19T10:30:09.217Z,22.89
2018-07-19T10:32:37.923Z,22.85
2018-07-19T10:35:07.962Z,22.84
2018-07-19T10:37:36.595Z,22.71
2018-07-19T10:40:05.316Z,23.15
2018-07-19T10:42:34.159Z,23.72
2018-07-19T10:45:02.939Z,23.01
2018-07-19T10:47:31.424Z,23.65
2018-07-19T10:50:00.090Z,23.83
2018-07-19T10:52:28.940Z,23.64
2018-07-19T10:54:58.397Z,24.14
2018-07-19T10:57:26.857Z,24.19
2018-07-19T10:59:55.734Z,23.28
2018-07-19T11:02:25.193Z,23.69
2018-07-19T11:04:53.655Z,23.96
2018-07-19T11:07:22.166Z,23.67
2018-07-19T11:09:50.996Z,23.93
2018-07-19T11:12:20.009Z,24.07
2018-07-19T11:14:48.489Z,23.75
2018-07-19T11:17:17.575Z,23.19
2018-07-19T11:19:46.154Z,23.21
2018-07-19T11:22:14.729Z,22.61
2018-07-19T11:24:43.565Z,23.05
2018-07-19T11:27:12.529Z,23.12
2018-07-19T11:29:41.008Z,22.91
2018-07-19T11:32:09.864Z,23.25
2018-07-19T11:34:38.577Z,22.72
2018-07-19T11:37:07.081Z,22.72
2018-07-19T11:39:36.519Z,22.32
2018-07-19T11:42:05.289Z,22.79
2018-07-19T11:44:33.823Z,22.28
2018-07-19T11:47:02.266Z,22.75
2018-07-19T11:49:31.614Z,22.90
2018-07-19T11:52:00.130Z,22.20
2018-07-19T11:54:28.565Z,22.22
2018-07-19T11:56:57.517Z,21.98
2018-07-19T11:59:26.013Z,21.71
2018-07-19T12:01:54.491Z,22.01
2018-07-19T12:04:23.560Z,22.91
2018-07-19T12:06:53.012Z,22.95
2018-07-19T12:09:21.749Z,23.22
2018-07-19T12:11:50.790Z,23.16
2018-07-19T12:14:19.953Z,22.47
2018-07-19T12:16:48.475Z,22.15
2018-07-19T12:19:17.194Z,22.38
2018-07-19T12:21:45.917Z,22.78
2018-07-19T12:24:14.370Z,22.52
2018-07-19T12:26:43.521Z,22.87
2018-07-19T12:29:11.988Z,23.81
2018-07-19T12:31:40.461Z,22.95
2018-07-19T12:34:09.489Z,23.55
2018-07-19T12:36:38.146Z,23.54
2018-07-19T12:39:09.286Z,23.38
2018-07-19T12:41:37.857Z,22.80
2018-07-19T12:44:06.281Z,23.11
2018-07-19T12:46:34.729Z,22.51
2018-07-19T12:49:03.590Z,22.48
2018-07-19T12:51:32.029Z,22.29
2018-07-19T12:54:00.466Z,21.57
2018-07-19T12:56:29.945Z,21.46
2018-07-19T12:58:58.972Z,21.84
2018-07-19T13:01:27.438Z,21.24
2018-07-19T13:03:56.543Z,21.06
2018-07-19T13:06:25.574Z,21.32
2018-07-19T13:08:54.068Z,21.80
2018-07-19T13:11:22.543Z,22.58
2018-07-19T13:13:51.001Z,22.75
2018-07-19T13:16:20.227Z,23.03
2018-07-19T13:18:49.337Z,22.84
2018-07-19T13:21:18.017Z,22.68
2018-07-19T13:23:46.769Z,22.38
2018-07-19T13:26:15.801Z,23.27
2018-07-19T13:28:44.253Z,23.43
2018-07-19T13:31:13.197Z,24.68
2018-07-19T13:33:41.703Z,25.65
2018-07-19T13:36:10.201Z,25.60
2018-07-19T13:38:38.837Z,24.77
2018-07-19T13:41:07.338Z,25.64
2018-07-19T13:43:35.789Z,26.18
2018-07-19T13:46:04.926Z,25.87
2018-07-19T13:48:33.443Z,25.26
2018-07-19T13:51:01.905Z,26.11
2018-07-19T13:53:41.693Z,25.11
2018-07-19T13:56:10.703Z,23.93
2018-07-19T13:58:39.624Z,23.42
2018-07-19T14:01:08.148Z,23.84
2018-07-19T14:03:37.061Z,23.89
2018-07-19T14:06:05.573Z,24.30
2018-07-19T14:08:34.730Z,24.83
2018-07-19T14:11:03.404Z,25.28
2018-07-19T14:13:31.841Z,25.13
2018-07-19T14:16:00.777Z,24.92
2018-07-19T14:18:29.581Z,25.51
2018-07-19T14:20:58.599Z,25.79
2018-07-19T14:23:27.446Z,26.18
2018-07-19T14:25:56.127Z,25.97
2018-07-19T14:28:24.577Z,25.24
2018-07-19T14:30:53.073Z,25.23
2018-07-19T14:33:21.525Z,26.31
2018-07-19T14:35:50.444Z,26.33
2018-07-19T14:38:18.951Z,26.68
2018-07-19T14:40:47.613Z,26.88
2018-07-19T14:43:16.045Z,27.08
2018-07-19T14:45:44.726Z,27.34
2018-07-19T14:48:13.265Z,27.62
2018-07-19T14:50:41.944Z,27.51
2018-07-19T14:53:10.745Z,26.69
2018-07-19T14:55:39.185Z,27.52
2018-07-19T14:58:07.667Z,27.21
2018-07-19T15:00:36.866Z,27.33
2018-07-19T15:03:05.808Z,27.07
2018-07-19T15:05:34.245Z,26.49
2018-07-19T15:08:02.785Z,26.78
2018-07-19T15:10:31.521Z,26.60
2018-07-19T15:12:59.978Z,26.63
2018-07-19T15:15:28.757Z,26.82
2018-07-19T15:17:58.493Z,26.41
2018-07-19T15:20:27.652Z,26.48
2018-07-19T15:22:56.468Z,26.41
2018-07-19T15:25:24.945Z,27.24
2018-07-19T15:27:53.869Z,27.61
2018-07-19T15:30:23.197Z,27.93
2018-07-19T15:32:51.994Z,26.80
2018-07-19T15:35:21.085Z,27.17
2018-07-19T15:37:50.373Z,27.25
2018-07-19T15:40:18.861Z,27.30
2018-07-19T15:42:47.429Z,26.86
2018-07-19T15:45:16.713Z,27.34
2018-07-19T15:47:45.301Z,27.22
2018-07-19T15:50:13.773Z,26.95
2018-07-19T15:52:42.473Z,26.61
2018-07-19T15:55:11.338Z,26.84
2018-07-19T15:57:39.804Z,26.59
2018-07-19T16:00:08.629Z,27.05
2018-07-19T16:02:37.604Z,27.11
2018-07-19T16:05:06.439Z,26.78
2018-07-19T16:07:36.818Z,26.62
2018-07-19T16:10:05.494Z,27.28
2018-07-19T16:12:34.497Z,26.61
2018-07-19T16:15:03.394Z,26.89
2018-07-19T16:17:31.819Z,25.90
2018-07-19T16:20:00.583Z,26.41
2018-07-19T16:22:29.387Z,26.05
2018-07-19T16:24:58.321Z,26.30
2018-07-19T16:27:26.934Z,25.95
2018-07-19T16:29:55.845Z,25.64
2018-07-19T16:32:24.344Z,25.61
2018-07-19T16:34:53.513Z,25.86
2018-07-19T16:37:22.481Z,25.19
2018-07-19T16:39:51.405Z,25.32
2018-07-19T16:42:20.310Z,24.99
2018-07-19T16:44:49.288Z,25.28
2018-07-19T16:47:17.757Z,25.18
2018-07-19T16:49:46.437Z,25.54
2018-07-19T16:52:15.030Z,26.38
2018-07-19T16:54:43.483Z,25.80
2018-07-19T16:57:11.949Z,26.06
2018-07-19T16:59:40.653Z,26.47
2018-07-19T17:02:09.677Z,25.74
2018-07-19T17:04:38.119Z,26.15
2018-07-19T17:07:07.342Z,26.22
2018-07-19T17:09:35.786Z,26.11
2018-07-19T17:12:04.275Z,26.88
2018-07-19T17:14:33.380Z,26.82
2018-07-19T17:17:01.990Z,27.13
2018-07-19T17:19:30.505Z,27.19
2018-07-19T17:21:59.525Z,28.21
2018-07-19T17:24:28.422Z,27.73
2018-07-19T17:26:56.862Z,28.16
2018-07-19T17:29:25.489Z,28.45
2018-07-19T17:31:54.578Z,29.18
2018-07-19T17:34:24.155Z,28.94
2018-07-19T17:36:53.713Z,29.93
2018-07-19T17:39:22.481Z,30.28
2018-07-19T17:41:50.915Z,29.90
2018-07-19T17:44:20.118Z,30.45
2018-07-19T17:46:48.561Z,30.32
2018-07-19T17:49:17.328Z,30.33
2018-07-19T17:51:46.212Z,30.51
2018-07-19T17:54:15.385Z,30.44
2018-07-19T17:56:43.818Z,30.67
2018-07-19T17:59:12.851Z,31.08
2018-07-19T18:01:41.289Z,31.33
2018-07-19T18:04:09.738Z,31.32
2018-07-19T18:06:38.547Z,31.75
2018-07-19T18:09:09.917Z,31.60
2018-07-19T18:11:38.435Z,31.42
2018-07-19T18:14:07.695Z,32.16
2018-07-19T18:16:36.767Z,31.76
2018-07-19T18:19:05.407Z,31.76
2018-07-19T18:21:34.346Z,32.20
2018-07-19T18:24:02.779Z,31.75
2018-07-19T18:26:31.641Z,31.83
2018-07-19T18:29:00.396Z,32.30
2018-07-19T18:31:29.396Z,32.01
2018-07-19T18:33:57.877Z,32.05
2018-07-19T18:36:26.570Z,32.00
2018-07-19T18:38:55.331Z,32.01
2018-07-19T18:41:24.046Z,32.45
2018-07-19T18:43:53.725Z,33.21
2018-07-19T18:46:22.430Z,32.85
2018-07-19T18:48:50.889Z,33.68
2018-07-19T18:51:19.420Z,33.54
2018-07-19T18:53:47.834Z,33.54
2018-07-19T18:56:16.673Z,33.41
2018-07-19T18:58:45.558Z,33.98
2018-07-19T19:01:14.725Z,33.77
2018-07-19T19:03:43.160Z,34.09
2018-07-19T19:06:19.045Z,34.38
2018-07-19T19:08:41.034Z,34.67
2018-07-19T19:11:09.515Z,34.08
2018-07-19T19:13:38.093Z,34.56
2018-07-19T19:16:06.774Z,35.03
2018-07-19T19:18:35.797Z,35.41
2018-07-19T19:21:04.740Z,35.34
2018-07-19T19:23:33.833Z,35.75
2018-07-19T19:26:02.297Z,35.71
2018-07-19T19:28:31.552Z,35.87
2018-07-19T19:31:00.488Z,36.70
2018-07-19T19:33:29.001Z,36.61
2018-07-19T19:35:57.972Z,36.13
2018-07-19T19:38:27.080Z,36.33
2018-07-19T19:40:55.538Z,37.09
2018-07-19T19:43:24.353Z,36.86
2018-07-19T19:45:53.453Z,36.74
2018-07-19T19:48:22.360Z,37.26
2018-07-19T19:50:51.480Z,36.91
2018-07-19T19:53:20.057Z,37.46
2018-07-19T19:55:48.805Z,37.02
2018-07-19T19:58:17.678Z,37.62
2018-07-19T20:00:46.116Z,37.15
2018-07-19T20:03:14.860Z,37.88
2018-07-19T20:05:43.549Z,38.00
2018-07-19T20:08:12.245Z,38.18
2018-07-19T20:10:40.689Z,37.76
2018-07-19T20:13:09.624Z,37.60
2018-07-19T20:15:38.086Z,37.95
2018-07-19T20:18:06.565Z,37.91
2018-07-19T20:20:35.869Z,37.96
2018-07-19T20:23:04.668Z,38.27
2018-07-19T20:25:33.289Z,38.72
2018-07-19T20:28:01.973Z,38.69
2018-07-19T20:30:30.819Z,39.00
2018-07-19T20:32:59.260Z,39.30
2018-07-19T20:35:27.761Z,39.16
2018-07-19T20:37:56.773Z,39.14
2018-07-19T20:40:25.501Z,39.08
2018-07-19T20:42:54.741Z,39.21
2018-07-19T20:45:23.249Z,39.80
2018-07-19T20:47:52.474Z,39.96
2018-07-19T20:50:21.382Z,39.56
2018-07-19T20:52:49.810Z,40.05
2018-07-19T20:55:18.775Z,40.16
2018-07-19T20:57:47.676Z,39.83
2018-07-19T21:00:16.113Z,40.43
2018-07-19T21:02:44.834Z,40.53
2018-07-19T21:05:13.708Z,40.26
2018-07-19T21:07:42.184Z,39.84
2018-07-19T21:10:10.697Z,40.77
2018-07-19T21:12:39.304Z,40.77
2018-07-19T21:15:07.771Z,40.96
2018-07-19T21:17:36.251Z,40.39
2018-07-19T21:20:05.085Z,40.81
2018-07-19T21:22:34.046Z,40.39
2018-07-19T21:25:02.517Z,41.10
2018-07-19T21:27:31.093Z,40.89
2018-07-19T21:29:59.756Z,41.31
2018-07-19T21:32:28.568Z,41.12
2018-07-19T21:34:57.021Z,41.10
2018-07-19T21:37:25.833Z,41.27
2018-07-19T21:39:54.449Z,41.77
2018-07-19T21:42:22.982Z,41.38
2018-07-19T21:44:52.392Z,41.75
2018-07-19T21:47:21.144Z,41.33
2018-07-19T21:49:50.072Z,41.84
2018-07-19T21:52:18.709Z,41.92
2018-07-19T21:54:47.553Z,41.64
2018-07-19T21:57:16.281Z,42.30
2018-07-19T21:59:44.706Z,42.13
2018-07-19T22:02:14.926Z,41.76
2018-07-19T22:04:43.645Z,41.80
2018-07-19T22:07:12.505Z,42.31
2018-07-19T22:09:40.975Z,43.23
2018-07-19T22:12:09.775Z,43.45
2018-07-19T22:14:38.225Z,43.07
2018-07-19T22:17:06.693Z,43.83
2018-07-19T22:19:35.816Z,44.11
2018-07-19T22:22:04.964Z,43.93
2018-07-19T22:24:33.907Z,43.91
2018-07-19T22:27:02.796Z,44.60
2018-07-19T22:29:31.597Z,44.69
2018-07-19T22:32:00.074Z,44.56
2018-07-19T22:34:28.773Z,45.40
2018-07-19T22:36:57.334Z,45.63
2018-07-19T22:39:26.025Z,45.89
2018-07-19T22:41:54.686Z,45.99
2018-07-19T22:44:23.614Z,45.74
2018-07-19T22:46:53.036Z,46.30
2018-07-19T22:49:22.213Z,46.32
2018-07-19T22:51:50.649Z,45.98
2018-07-19T22:54:19.209Z,46.21
2018-07-19T22:56:48.249Z,46.95
2018-07-19T22:59:16.701Z,46.65
2018-07-19T23:01:45.133Z,47.54
2018-07-19T23:04:13.817Z,47.41
2018-07-19T23:06:42.286Z,47.61
2018-07-19T23:09:10.791Z,48.30
2018-07-19T23:11:39.588Z,48.56
2018-07-19T23:14:08.212Z,49.14
2018-07-19T23:16:36.658Z,48.38
2018-07-19T23:19:05.505Z,48.26
2018-07-19T23:21:34.085Z,48.77
2018-07-19T23:24:03.505Z,48.75
2018-07-19T23:26:32.197Z,48.05
2018-07-19T23:29:01.033Z,47.83
2018-07-19T23:31:29.685Z,47.84
2018-07-19T23:33:58.226Z,47.99
2018-07-19T23:36:32.419Z,48.64
2018-07-19T23:39:08.918Z,48.55
2018-07-19T23:41:41.673Z,48.23
2018-07-19T23:44:15.830Z,49.06
2018-07-19T23:46:48.044Z,48.90
2018-07-19T23:49:17.057Z,48.95
2018-07-19T23:51:45.849Z,49.14
2018-07-19T23:54:14.281Z,48.93
2018-07-19T23:56:43.142Z,48.82
2018-07-19T23:59:11.917Z,49.04
